Terminal Aerodrome Forecast
Issued by NWS

Home | Current Version | Previous Version | Text Only | Print | Product List | Glossary On
Versions: 1 2 3 4 5 6 7 8 9 10 11 12 13 14 15
000
FTUS41 KPBZ 302339
TAFAGC
TAF
KAGC 302339Z 3100/3124 22004KT P6SM FEW040 BKN120
     FM310900 VRB02KT 4SM BR SCT250
     FM311400 23005KT P6SM SCT040 BKN250=

USA.gov is the U.S. government's official web portal to all federal, state and local government web resources and services.